sensor_id;sensor_type;location;lat;lon;timestamp;P1;durP1;ratioP1;P2;durP2;ratioP2
3953;SDS011;1991;48.682;9.030;2022-11-15T00:01:09;3.37;;;2.10;;
3953;SDS011;1991;48.682;9.030;2022-11-15T00:03:41;5.33;;;2.00;;
3953;SDS011;1991;48.682;9.030;2022-11-15T00:06:08;2.43;;;2.20;;
3953;SDS011;1991;48.682;9.030;2022-11-15T00:08:34;2.63;;;2.00;;
3953;SDS011;1991;48.682;9.030;2022-11-15T00:11:00;2.13;;;1.60;;
3953;SDS011;1991;48.682;9.030;2022-11-15T00:13:28;4.20;;;2.10;;
3953;SDS011;1991;48.682;9.030;2022-11-15T00:15:56;2.93;;;1.70;;
3953;SDS011;1991;48.682;9.030;2022-11-15T00:18:23;5.77;;;2.40;;
3953;SDS011;1991;48.682;9.030;2022-11-15T00:20:49;2.73;;;1.93;;
3953;SDS011;1991;48.682;9.030;2022-11-15T00:23:14;3.20;;;1.80;;
3953;SDS011;1991;48.682;9.030;2022-11-15T00:25:41;3.13;;;1.80;;
3953;SDS011;1991;48.682;9.030;2022-11-15T00:28:06;7.10;;;2.10;;
3953;SDS011;1991;48.682;9.030;2022-11-15T00:30:32;1.87;;;1.60;;
3953;SDS011;1991;48.682;9.030;2022-11-15T00:33:01;5.27;;;1.80;;
3953;SDS011;1991;48.682;9.030;2022-11-15T00:35:33;2.77;;;1.57;;
3953;SDS011;1991;48.682;9.030;2022-11-15T00:38:00;3.77;;;2.13;;
3953;SDS011;1991;48.682;9.030;2022-11-15T00:40:26;2.50;;;1.73;;
3953;SDS011;1991;48.682;9.030;2022-11-15T00:42:52;2.50;;;1.80;;
3953;SDS011;1991;48.682;9.030;2022-11-15T00:45:17;4.10;;;1.90;;
3953;SDS011;1991;48.682;9.030;2022-11-15T00:47:46;3.80;;;1.80;;
3953;SDS011;1991;48.682;9.030;2022-11-15T00:50:12;2.83;;;1.73;;
3953;SDS011;1991;48.682;9.030;2022-11-15T00:52:38;4.00;;;2.03;;
3953;SDS011;1991;48.682;9.030;2022-11-15T00:55:03;2.73;;;1.90;;
3953;SDS011;1991;48.682;9.030;2022-11-15T00:57:29;2.50;;;1.73;;
3953;SDS011;1991;48.682;9.030;2022-11-15T00:59:55;3.73;;;2.10;;
3953;SDS011;1991;48.682;9.030;2022-11-15T01:02:20;4.57;;;2.23;;
3953;SDS011;1991;48.682;9.030;2022-11-15T01:04:46;6.63;;;3.73;;
3953;SDS011;1991;48.682;9.030;2022-11-15T01:07:12;7.07;;;4.17;;
3953;SDS011;1991;48.682;9.030;2022-11-15T01:09:38;7.50;;;3.77;;
3953;SDS011;1991;48.682;9.030;2022-11-15T01:12:03;5.70;;;3.20;;
3953;SDS011;1991;48.682;9.030;2022-11-15T01:14:29;6.60;;;3.10;;
3953;SDS011;1991;48.682;9.030;2022-11-15T01:16:55;6.70;;;3.20;;
3953;SDS011;1991;48.682;9.030;2022-11-15T01:19:20;4.67;;;3.17;;
3953;SDS011;1991;48.682;9.030;2022-11-15T01:21:48;3.70;;;2.63;;
3953;SDS011;1991;48.682;9.030;2022-11-15T01:24:14;2.90;;;2.37;;
3953;SDS011;1991;48.682;9.030;2022-11-15T01:26:40;6.57;;;2.20;;
3953;SDS011;1991;48.682;9.030;2022-11-15T01:29:06;4.13;;;1.90;;
3953;SDS011;1991;48.682;9.030;2022-11-15T01:31:41;4.83;;;1.97;;
3953;SDS011;1991;48.682;9.030;2022-11-15T01:34:06;4.20;;;1.70;;
3953;SDS011;1991;48.682;9.030;2022-11-15T01:36:32;3.23;;;1.80;;
3953;SDS011;1991;48.682;9.030;2022-11-15T01:38:58;3.20;;;1.40;;
3953;SDS011;1991;48.682;9.030;2022-11-15T01:41:28;2.30;;;1.70;;
3953;SDS011;1991;48.682;9.030;2022-11-15T01:43:56;4.40;;;2.00;;
3953;SDS011;1991;48.682;9.030;2022-11-15T01:46:41;1.77;;;1.60;;
3953;SDS011;1991;48.682;9.030;2022-11-15T01:49:12;3.30;;;1.83;;
3953;SDS011;1991;48.682;9.030;2022-11-15T01:51:40;4.37;;;1.83;;
3953;SDS011;1991;48.682;9.030;2022-11-15T01:54:07;1.70;;;1.43;;
3953;SDS011;1991;48.682;9.030;2022-11-15T01:56:46;2.77;;;1.70;;
3953;SDS011;1991;48.682;9.030;2022-11-15T01:59:19;4.37;;;1.80;;
3953;SDS011;1991;48.682;9.030;2022-11-15T02:01:46;4.20;;;1.97;;
3953;SDS011;1991;48.682;9.030;2022-11-15T02:04:13;2.37;;;1.50;;
3953;SDS011;1991;48.682;9.030;2022-11-15T02:06:43;3.13;;;1.97;;
3953;SDS011;1991;48.682;9.030;2022-11-15T02:09:10;3.10;;;2.20;;
3953;SDS011;1991;48.682;9.030;2022-11-15T02:11:36;3.27;;;1.70;;
3953;SDS011;1991;48.682;9.030;2022-11-15T02:14:02;2.80;;;1.87;;
3953;SDS011;1991;48.682;9.030;2022-11-15T02:16:41;2.07;;;1.67;;
3953;SDS011;1991;48.682;9.030;2022-11-15T02:30:17;2.63;;;1.77;;
3953;SDS011;1991;48.682;9.030;2022-11-15T02:33:00;3.70;;;1.93;;
3953;SDS011;1991;48.682;9.030;2022-11-15T02:38:31;3.17;;;1.57;;
3953;SDS011;1991;48.682;9.030;2022-11-15T02:41:26;3.80;;;1.90;;
3953;SDS011;1991;48.682;9.030;2022-11-15T02:44:08;3.03;;;1.90;;
3953;SDS011;1991;48.682;9.030;2022-11-15T02:46:53;4.63;;;1.70;;
3953;SDS011;1991;48.682;9.030;2022-11-15T02:50:21;3.73;;;1.90;;
3953;SDS011;1991;48.682;9.030;2022-11-15T02:52:29;2.57;;;1.70;;
3953;SDS011;1991;48.682;9.030;2022-11-15T02:54:55;2.83;;;1.80;;
3953;SDS011;1991;48.682;9.030;2022-11-15T03:00:25;2.27;;;1.80;;
3953;SDS011;1991;48.682;9.030;2022-11-15T03:05:53;3.43;;;1.63;;
3953;SDS011;1991;48.682;9.030;2022-11-15T03:08:31;3.90;;;1.90;;
3953;SDS011;1991;48.682;9.030;2022-11-15T03:11:07;1.97;;;1.33;;
3953;SDS011;1991;48.682;9.030;2022-11-15T03:19:25;3.40;;;1.67;;
3953;SDS011;1991;48.682;9.030;2022-11-15T03:22:10;3.63;;;1.80;;
3953;SDS011;1991;48.682;9.030;2022-11-15T03:24:39;1.87;;;1.40;;
3953;SDS011;1991;48.682;9.030;2022-11-15T03:27:06;2.50;;;1.50;;
3953;SDS011;1991;48.682;9.030;2022-11-15T03:29:34;2.43;;;1.50;;
3953;SDS011;1991;48.682;9.030;2022-11-15T03:32:06;4.00;;;1.90;;
3953;SDS011;1991;48.682;9.030;2022-11-15T03:37:20;3.43;;;1.50;;
3953;SDS011;1991;48.682;9.030;2022-11-15T03:39:49;1.80;;;1.53;;
3953;SDS011;1991;48.682;9.030;2022-11-15T03:42:19;2.03;;;1.63;;
3953;SDS011;1991;48.682;9.030;2022-11-15T03:44:58;3.00;;;1.63;;
3953;SDS011;1991;48.682;9.030;2022-11-15T03:47:34;3.57;;;2.00;;
3953;SDS011;1991;48.682;9.030;2022-11-15T03:50:08;2.10;;;1.70;;
3953;SDS011;1991;48.682;9.030;2022-11-15T03:52:37;2.47;;;1.83;;
3953;SDS011;1991;48.682;9.030;2022-11-15T03:55:05;3.30;;;1.73;;
3953;SDS011;1991;48.682;9.030;2022-11-15T03:57:33;2.53;;;1.67;;
3953;SDS011;1991;48.682;9.030;2022-11-15T03:59:58;2.17;;;1.80;;
3953;SDS011;1991;48.682;9.030;2022-11-15T04:02:24;4.57;;;1.80;;
3953;SDS011;1991;48.682;9.030;2022-11-15T04:04:49;3.30;;;2.00;;
3953;SDS011;1991;48.682;9.030;2022-11-15T04:07:15;3.70;;;1.90;;
3953;SDS011;1991;48.682;9.030;2022-11-15T04:09:40;2.27;;;1.73;;
3953;SDS011;1991;48.682;9.030;2022-11-15T04:12:24;2.23;;;1.57;;
3953;SDS011;1991;48.682;9.030;2022-11-15T04:14:56;2.40;;;1.60;;
3953;SDS011;1991;48.682;9.030;2022-11-15T04:17:42;2.07;;;1.37;;
3953;SDS011;1991;48.682;9.030;2022-11-15T04:20:19;4.27;;;1.80;;
3953;SDS011;1991;48.682;9.030;2022-11-15T04:23:18;2.33;;;1.63;;
3953;SDS011;1991;48.682;9.030;2022-11-15T04:26:04;2.23;;;1.60;;
3953;SDS011;1991;48.682;9.030;2022-11-15T04:28:38;3.00;;;1.80;;
3953;SDS011;1991;48.682;9.030;2022-11-15T04:31:24;2.20;;;1.60;;
3953;SDS011;1991;48.682;9.030;2022-11-15T04:33:50;4.00;;;1.60;;
3953;SDS011;1991;48.682;9.030;2022-11-15T04:36:15;3.13;;;1.70;;
3953;SDS011;1991;48.682;9.030;2022-11-15T04:38:59;3.53;;;1.93;;
3953;SDS011;1991;48.682;9.030;2022-11-15T04:41:25;2.23;;;1.50;;
3953;SDS011;1991;48.682;9.030;2022-11-15T04:43:51;1.53;;;1.43;;
3953;SDS011;1991;48.682;9.030;2022-11-15T04:46:16;2.20;;;1.30;;
3953;SDS011;1991;48.682;9.030;2022-11-15T04:48:42;4.33;;;1.47;;
3953;SDS011;1991;48.682;9.030;2022-11-15T04:51:08;2.43;;;1.40;;
3953;SDS011;1991;48.682;9.030;2022-11-15T04:53:33;3.07;;;1.40;;
3953;SDS011;1991;48.682;9.030;2022-11-15T04:55:59;2.93;;;1.80;;
3953;SDS011;1991;48.682;9.030;2022-11-15T04:58:24;2.03;;;1.60;;
3953;SDS011;1991;48.682;9.030;2022-11-15T05:00:50;3.90;;;1.83;;
3953;SDS011;1991;48.682;9.030;2022-11-15T05:03:15;4.80;;;1.47;;
3953;SDS011;1991;48.682;9.030;2022-11-15T05:06:00;3.70;;;2.40;;
3953;SDS011;1991;48.682;9.030;2022-11-15T05:08:26;3.00;;;1.90;;
3953;SDS011;1991;48.682;9.030;2022-11-15T05:10:51;3.80;;;1.63;;
3953;SDS011;1991;48.682;9.030;2022-11-15T05:13:17;2.30;;;1.50;;
3953;SDS011;1991;48.682;9.030;2022-11-15T05:15:43;4.43;;;1.70;;
3953;SDS011;1991;48.682;9.030;2022-11-15T05:18:09;2.57;;;1.60;;
3953;SDS011;1991;48.682;9.030;2022-11-15T05:20:34;2.23;;;1.57;;
3953;SDS011;1991;48.682;9.030;2022-11-15T05:23:00;3.33;;;1.53;;
3953;SDS011;1991;48.682;9.030;2022-11-15T05:25:26;2.87;;;1.57;;
3953;SDS011;1991;48.682;9.030;2022-11-15T05:27:52;3.87;;;1.60;;
3953;SDS011;1991;48.682;9.030;2022-11-15T05:30:17;4.33;;;1.73;;
3953;SDS011;1991;48.682;9.030;2022-11-15T05:32:43;5.53;;;1.70;;
3953;SDS011;1991;48.682;9.030;2022-11-15T05:35:12;5.33;;;1.93;;
3953;SDS011;1991;48.682;9.030;2022-11-15T05:37:54;2.03;;;1.63;;
3953;SDS011;1991;48.682;9.030;2022-11-15T05:40:20;5.17;;;2.50;;
3953;SDS011;1991;48.682;9.030;2022-11-15T05:42:45;3.47;;;2.13;;
3953;SDS011;1991;48.682;9.030;2022-11-15T05:45:12;4.20;;;2.43;;
3953;SDS011;1991;48.682;9.030;2022-11-15T05:47:38;3.07;;;1.70;;
3953;SDS011;1991;48.682;9.030;2022-11-15T05:50:05;2.07;;;1.43;;
3953;SDS011;1991;48.682;9.030;2022-11-15T05:52:32;4.47;;;2.10;;
3953;SDS011;1991;48.682;9.030;2022-11-15T05:54:59;4.00;;;1.63;;
3953;SDS011;1991;48.682;9.030;2022-11-15T05:57:26;2.87;;;1.80;;
3953;SDS011;1991;48.682;9.030;2022-11-15T05:59:52;5.63;;;2.90;;
3953;SDS011;1991;48.682;9.030;2022-11-15T06:02:19;4.33;;;3.30;;
3953;SDS011;1991;48.682;9.030;2022-11-15T06:04:44;2.57;;;1.93;;
3953;SDS011;1991;48.682;9.030;2022-11-15T06:07:10;2.50;;;1.80;;
3953;SDS011;1991;48.682;9.030;2022-11-15T06:09:35;2.50;;;1.53;;
3953;SDS011;1991;48.682;9.030;2022-11-15T06:12:01;3.37;;;3.07;;
3953;SDS011;1991;48.682;9.030;2022-11-15T06:14:26;4.83;;;2.50;;
3953;SDS011;1991;48.682;9.030;2022-11-15T06:16:52;3.33;;;1.80;;
3953;SDS011;1991;48.682;9.030;2022-11-15T06:19:18;5.03;;;2.17;;
3953;SDS011;1991;48.682;9.030;2022-11-15T06:21:43;2.77;;;1.87;;
3953;SDS011;1991;48.682;9.030;2022-11-15T06:24:09;3.33;;;2.20;;
3953;SDS011;1991;48.682;9.030;2022-11-15T06:26:34;5.17;;;2.40;;
3953;SDS011;1991;48.682;9.030;2022-11-15T06:29:01;4.53;;;1.90;;
3953;SDS011;1991;48.682;9.030;2022-11-15T06:31:28;5.33;;;1.67;;
3953;SDS011;1991;48.682;9.030;2022-11-15T06:33:53;4.10;;;1.67;;
3953;SDS011;1991;48.682;9.030;2022-11-15T06:36:19;2.90;;;2.17;;
3953;SDS011;1991;48.682;9.030;2022-11-15T06:38:45;4.70;;;2.10;;
3953;SDS011;1991;48.682;9.030;2022-11-15T06:41:12;5.07;;;2.20;;
3953;SDS011;1991;48.682;9.030;2022-11-15T06:43:38;3.13;;;1.80;;
3953;SDS011;1991;48.682;9.030;2022-11-15T06:46:05;3.93;;;2.50;;
3953;SDS011;1991;48.682;9.030;2022-11-15T06:48:32;3.87;;;2.10;;
3953;SDS011;1991;48.682;9.030;2022-11-15T06:50:59;5.33;;;2.60;;
3953;SDS011;1991;48.682;9.030;2022-11-15T06:53:26;4.40;;;2.50;;
3953;SDS011;1991;48.682;9.030;2022-11-15T06:55:52;4.23;;;2.53;;
3953;SDS011;1991;48.682;9.030;2022-11-15T06:58:18;3.57;;;2.73;;
3953;SDS011;1991;48.682;9.030;2022-11-15T07:00:45;4.83;;;2.33;;
3953;SDS011;1991;48.682;9.030;2022-11-15T07:03:11;4.77;;;2.60;;
3953;SDS011;1991;48.682;9.030;2022-11-15T07:05:36;7.87;;;2.50;;
3953;SDS011;1991;48.682;9.030;2022-11-15T07:08:02;6.37;;;3.57;;
3953;SDS011;1991;48.682;9.030;2022-11-15T07:10:28;5.40;;;2.60;;
3953;SDS011;1991;48.682;9.030;2022-11-15T07:12:54;3.93;;;2.27;;
3953;SDS011;1991;48.682;9.030;2022-11-15T07:15:22;4.63;;;2.47;;
3953;SDS011;1991;48.682;9.030;2022-11-15T07:17:49;5.47;;;2.10;;
3953;SDS011;1991;48.682;9.030;2022-11-15T07:20:15;2.97;;;2.03;;
3953;SDS011;1991;48.682;9.030;2022-11-15T07:22:41;4.37;;;2.57;;
3953;SDS011;1991;48.682;9.030;2022-11-15T07:25:07;8.43;;;3.20;;
3953;SDS011;1991;48.682;9.030;2022-11-15T07:27:34;4.63;;;2.47;;
3953;SDS011;1991;48.682;9.030;2022-11-15T07:29:59;5.93;;;2.60;;
3953;SDS011;1991;48.682;9.030;2022-11-15T07:32:25;3.67;;;2.10;;
3953;SDS011;1991;48.682;9.030;2022-11-15T07:34:51;2.80;;;1.93;;
3953;SDS011;1991;48.682;9.030;2022-11-15T07:37:17;2.90;;;1.63;;
3953;SDS011;1991;48.682;9.030;2022-11-15T07:39:43;3.70;;;2.13;;
3953;SDS011;1991;48.682;9.030;2022-11-15T07:42:09;4.60;;;1.90;;
3953;SDS011;1991;48.682;9.030;2022-11-15T07:44:53;4.10;;;1.70;;
3953;SDS011;1991;48.682;9.030;2022-11-15T07:47:18;2.87;;;1.60;;
3953;SDS011;1991;48.682;9.030;2022-11-15T07:49:45;5.97;;;2.37;;
3953;SDS011;1991;48.682;9.030;2022-11-15T07:52:11;5.00;;;1.63;;
3953;SDS011;1991;48.682;9.030;2022-11-15T07:54:37;2.03;;;1.50;;
3953;SDS011;1991;48.682;9.030;2022-11-15T07:57:03;2.10;;;1.30;;
3953;SDS011;1991;48.682;9.030;2022-11-15T07:59:29;2.37;;;1.33;;
3953;SDS011;1991;48.682;9.030;2022-11-15T08:01:54;6.20;;;2.07;;
3953;SDS011;1991;48.682;9.030;2022-11-15T08:04:20;3.63;;;1.90;;
3953;SDS011;1991;48.682;9.030;2022-11-15T08:06:46;2.93;;;1.50;;
3953;SDS011;1991;48.682;9.030;2022-11-15T08:09:11;2.23;;;1.10;;
3953;SDS011;1991;48.682;9.030;2022-11-15T08:11:37;2.07;;;1.50;;
3953;SDS011;1991;48.682;9.030;2022-11-15T08:14:02;3.40;;;1.60;;
3953;SDS011;1991;48.682;9.030;2022-11-15T08:16:28;3.17;;;1.30;;
3953;SDS011;1991;48.682;9.030;2022-11-15T08:18:53;2.92;;;1.23;;
3953;SDS011;1991;48.682;9.030;2022-11-15T08:21:20;2.38;;;1.45;;
3953;SDS011;1991;48.682;9.030;2022-11-15T08:23:46;1.95;;;0.98;;
3953;SDS011;1991;48.682;9.030;2022-11-15T08:26:11;2.00;;;1.15;;
3953;SDS011;1991;48.682;9.030;2022-11-15T08:28:37;3.00;;;1.42;;
3953;SDS011;1991;48.682;9.030;2022-11-15T08:31:03;3.35;;;2.35;;
3953;SDS011;1991;48.682;9.030;2022-11-15T08:33:29;8.02;;;3.70;;
3953;SDS011;1991;48.682;9.030;2022-11-15T08:35:56;11.40;;;5.90;;
3953;SDS011;1991;48.682;9.030;2022-11-15T08:38:22;3.67;;;1.58;;
3953;SDS011;1991;48.682;9.030;2022-11-15T08:40:48;1.60;;;1.35;;
3953;SDS011;1991;48.682;9.030;2022-11-15T08:43:16;2.08;;;1.42;;
3953;SDS011;1991;48.682;9.030;2022-11-15T08:45:42;5.32;;;1.27;;
3953;SDS011;1991;48.682;9.030;2022-11-15T08:48:08;2.15;;;1.30;;
3953;SDS011;1991;48.682;9.030;2022-11-15T08:50:33;3.70;;;1.10;;
3953;SDS011;1991;48.682;9.030;2022-11-15T08:53:06;1.48;;;0.90;;
3953;SDS011;1991;48.682;9.030;2022-11-15T08:55:35;1.65;;;0.93;;
3953;SDS011;1991;48.682;9.030;2022-11-15T08:58:01;1.15;;;0.98;;
3953;SDS011;1991;48.682;9.030;2022-11-15T09:00:27;4.78;;;1.55;;
3953;SDS011;1991;48.682;9.030;2022-11-15T09:02:53;1.77;;;1.20;;
3953;SDS011;1991;48.682;9.030;2022-11-15T09:05:18;3.20;;;1.35;;
3953;SDS011;1991;48.682;9.030;2022-11-15T09:07:44;1.23;;;0.90;;
3953;SDS011;1991;48.682;9.030;2022-11-15T09:10:09;1.30;;;0.90;;
3953;SDS011;1991;48.682;9.030;2022-11-15T09:12:35;2.47;;;1.20;;
3953;SDS011;1991;48.682;9.030;2022-11-15T09:15:01;3.63;;;1.60;;
3953;SDS011;1991;48.682;9.030;2022-11-15T09:17:27;1.50;;;1.17;;
3953;SDS011;1991;48.682;9.030;2022-11-15T09:19:52;1.92;;;1.10;;
3953;SDS011;1991;48.682;9.030;2022-11-15T09:22:18;1.77;;;1.15;;
3953;SDS011;1991;48.682;9.030;2022-11-15T09:24:43;2.70;;;1.50;;
3953;SDS011;1991;48.682;9.030;2022-11-15T09:27:09;2.65;;;1.10;;
3953;SDS011;1991;48.682;9.030;2022-11-15T09:29:35;1.58;;;1.30;;
3953;SDS011;1991;48.682;9.030;2022-11-15T09:32:01;2.38;;;1.70;;
3953;SDS011;1991;48.682;9.030;2022-11-15T09:34:26;3.15;;;1.30;;
3953;SDS011;1991;48.682;9.030;2022-11-15T09:36:52;3.33;;;1.33;;
3953;SDS011;1991;48.682;9.030;2022-11-15T09:39:18;4.70;;;1.60;;
3953;SDS011;1991;48.682;9.030;2022-11-15T09:50:08;3.08;;;1.58;;
3953;SDS011;1991;48.682;9.030;2022-11-15T09:52:36;5.70;;;1.75;;
3953;SDS011;1991;48.682;9.030;2022-11-15T09:55:04;2.58;;;1.60;;
3953;SDS011;1991;48.682;9.030;2022-11-15T10:00:52;3.38;;;1.60;;
3953;SDS011;1991;48.682;9.030;2022-11-15T10:06:00;1.75;;;1.33;;
3953;SDS011;1991;48.682;9.030;2022-11-15T10:11:22;3.65;;;1.48;;
3953;SDS011;1991;48.682;9.030;2022-11-15T10:13:51;5.53;;;2.00;;
3953;SDS011;1991;48.682;9.030;2022-11-15T10:24:58;8.43;;;1.88;;
3953;SDS011;1991;48.682;9.030;2022-11-15T10:27:37;4.00;;;1.90;;
3953;SDS011;1991;48.682;9.030;2022-11-15T10:30:15;6.50;;;3.13;;
3953;SDS011;1991;48.682;9.030;2022-11-15T10:32:43;7.20;;;2.88;;
3953;SDS011;1991;48.682;9.030;2022-11-15T10:38:01;3.80;;;2.78;;
3953;SDS011;1991;48.682;9.030;2022-11-15T10:40:31;2.78;;;1.42;;
3953;SDS011;1991;48.682;9.030;2022-11-15T10:45:34;3.03;;;1.40;;
3953;SDS011;1991;48.682;9.030;2022-11-15T10:48:19;2.15;;;1.30;;
3953;SDS011;1991;48.682;9.030;2022-11-15T10:50:47;2.78;;;1.10;;
3953;SDS011;1991;48.682;9.030;2022-11-15T10:53:22;2.15;;;1.08;;
3953;SDS011;1991;48.682;9.030;2022-11-15T10:55:52;1.15;;;1.00;;
3953;SDS011;1991;48.682;9.030;2022-11-15T10:58:39;4.38;;;1.35;;
3953;SDS011;1991;48.682;9.030;2022-11-15T11:01:12;2.28;;;1.40;;
3953;SDS011;1991;48.682;9.030;2022-11-15T11:03:40;4.72;;;1.77;;
3953;SDS011;1991;48.682;9.030;2022-11-15T11:06:17;4.70;;;1.35;;
3953;SDS011;1991;48.682;9.030;2022-11-15T11:08:59;1.15;;;0.95;;
3953;SDS011;1991;48.682;9.030;2022-11-15T11:11:49;1.40;;;1.02;;
3953;SDS011;1991;48.682;9.030;2022-11-15T11:14:25;3.17;;;1.27;;
3953;SDS011;1991;48.682;9.030;2022-11-15T11:21:59;2.05;;;0.98;;
3953;SDS011;1991;48.682;9.030;2022-11-15T11:24:49;2.88;;;1.30;;
3953;SDS011;1991;48.682;9.030;2022-11-15T11:32:46;3.92;;;1.10;;
3953;SDS011;1991;48.682;9.030;2022-11-15T11:51:16;2.80;;;0.90;;
3953;SDS011;1991;48.682;9.030;2022-11-15T11:54:09;1.98;;;1.00;;
3953;SDS011;1991;48.682;9.030;2022-11-15T11:56:37;2.55;;;0.85;;
3953;SDS011;1991;48.682;9.030;2022-11-15T12:01:46;1.63;;;1.08;;
3953;SDS011;1991;48.682;9.030;2022-11-15T12:06:59;2.50;;;0.93;;
3953;SDS011;1991;48.682;9.030;2022-11-15T12:09:36;2.20;;;0.85;;
3953;SDS011;1991;48.682;9.030;2022-11-15T12:12:11;1.67;;;0.90;;
3953;SDS011;1991;48.682;9.030;2022-11-15T12:14:50;1.88;;;0.98;;
3953;SDS011;1991;48.682;9.030;2022-11-15T12:17:21;1.85;;;0.80;;
3953;SDS011;1991;48.682;9.030;2022-11-15T12:19:49;1.17;;;0.95;;
3953;SDS011;1991;48.682;9.030;2022-11-15T12:22:21;1.90;;;1.10;;
3953;SDS011;1991;48.682;9.030;2022-11-15T12:25:01;2.28;;;1.00;;
3953;SDS011;1991;48.682;9.030;2022-11-15T12:27:33;3.30;;;1.05;;
3953;SDS011;1991;48.682;9.030;2022-11-15T12:30:11;2.22;;;0.88;;
3953;SDS011;1991;48.682;9.030;2022-11-15T12:35:58;3.70;;;1.08;;
3953;SDS011;1991;48.682;9.030;2022-11-15T12:38:59;2.63;;;0.82;;
3953;SDS011;1991;48.682;9.030;2022-11-15T12:41:25;1.85;;;1.17;;
3953;SDS011;1991;48.682;9.030;2022-11-15T12:43:52;2.03;;;1.25;;
3953;SDS011;1991;48.682;9.030;2022-11-15T12:48:55;2.63;;;1.83;;
3953;SDS011;1991;48.682;9.030;2022-11-15T12:51:21;2.78;;;1.30;;
3953;SDS011;1991;48.682;9.030;2022-11-15T12:57:22;2.70;;;1.08;;
3953;SDS011;1991;48.682;9.030;2022-11-15T13:02:47;1.63;;;1.02;;
3953;SDS011;1991;48.682;9.030;2022-11-15T13:27:57;2.42;;;1.52;;
3953;SDS011;1991;48.682;9.030;2022-11-15T13:30:24;1.45;;;1.35;;
3953;SDS011;1991;48.682;9.030;2022-11-15T13:32:52;2.33;;;1.30;;
3953;SDS011;1991;48.682;9.030;2022-11-15T13:35:23;2.95;;;1.35;;
3953;SDS011;1991;48.682;9.030;2022-11-15T13:37:53;1.60;;;1.10;;
3953;SDS011;1991;48.682;9.030;2022-11-15T13:42:47;2.28;;;1.27;;
3953;SDS011;1991;48.682;9.030;2022-11-15T13:45:13;2.38;;;1.20;;
3953;SDS011;1991;48.682;9.030;2022-11-15T13:47:41;3.28;;;1.20;;
3953;SDS011;1991;48.682;9.030;2022-11-15T13:50:13;1.05;;;0.95;;
3953;SDS011;1991;48.682;9.030;2022-11-15T13:52:39;2.92;;;1.13;;
3953;SDS011;1991;48.682;9.030;2022-11-15T13:55:41;1.83;;;1.08;;
3953;SDS011;1991;48.682;9.030;2022-11-15T13:58:01;4.50;;;2.22;;
3953;SDS011;1991;48.682;9.030;2022-11-15T14:00:40;3.08;;;1.40;;
3953;SDS011;1991;48.682;9.030;2022-11-15T14:05:36;3.00;;;1.63;;
3953;SDS011;1991;48.682;9.030;2022-11-15T14:08:03;2.70;;;1.80;;
3953;SDS011;1991;48.682;9.030;2022-11-15T14:10:38;2.88;;;1.70;;
3953;SDS011;1991;48.682;9.030;2022-11-15T14:13:09;3.03;;;1.80;;
3953;SDS011;1991;48.682;9.030;2022-11-15T14:15:51;1.58;;;1.20;;
3953;SDS011;1991;48.682;9.030;2022-11-15T14:18:39;1.50;;;1.25;;
3953;SDS011;1991;48.682;9.030;2022-11-15T14:21:08;2.53;;;1.80;;
3953;SDS011;1991;48.682;9.030;2022-11-15T14:23:34;2.28;;;1.70;;
3953;SDS011;1991;48.682;9.030;2022-11-15T14:25:59;2.22;;;1.60;;
3953;SDS011;1991;48.682;9.030;2022-11-15T14:30:51;1.77;;;1.60;;
3953;SDS011;1991;48.682;9.030;2022-11-15T14:33:28;2.00;;;1.35;;
3953;SDS011;1991;48.682;9.030;2022-11-15T14:36:10;4.22;;;1.73;;
3953;SDS011;1991;48.682;9.030;2022-11-15T14:38:40;1.50;;;1.38;;
3953;SDS011;1991;48.682;9.030;2022-11-15T14:41:23;4.55;;;2.03;;
3953;SDS011;1991;48.682;9.030;2022-11-15T14:43:51;2.95;;;2.15;;
3953;SDS011;1991;48.682;9.030;2022-11-15T14:46:17;6.00;;;2.25;;
3953;SDS011;1991;48.682;9.030;2022-11-15T14:48:43;3.63;;;1.90;;
3953;SDS011;1991;48.682;9.030;2022-11-15T14:51:18;2.35;;;1.80;;
3953;SDS011;1991;48.682;9.030;2022-11-15T14:53:44;6.07;;;1.83;;
3953;SDS011;1991;48.682;9.030;2022-11-15T14:56:11;4.25;;;2.03;;
3953;SDS011;1991;48.682;9.030;2022-11-15T14:58:37;2.55;;;2.10;;
3953;SDS011;1991;48.682;9.030;2022-11-15T15:01:09;3.05;;;1.70;;
3953;SDS011;1991;48.682;9.030;2022-11-15T15:03:38;2.05;;;1.60;;
3953;SDS011;1991;48.682;9.030;2022-11-15T15:06:03;3.83;;;1.50;;
3953;SDS011;1991;48.682;9.030;2022-11-15T15:08:29;2.80;;;1.52;;
3953;SDS011;1991;48.682;9.030;2022-11-15T15:10:55;2.58;;;1.40;;
3953;SDS011;1991;48.682;9.030;2022-11-15T15:13:21;3.40;;;1.58;;
3953;SDS011;1991;48.682;9.030;2022-11-15T15:15:49;2.40;;;1.50;;
3953;SDS011;1991;48.682;9.030;2022-11-15T15:18:16;2.42;;;1.77;;
3953;SDS011;1991;48.682;9.030;2022-11-15T15:20:43;2.70;;;1.60;;
3953;SDS011;1991;48.682;9.030;2022-11-15T15:23:16;3.60;;;2.42;;
3953;SDS011;1991;48.682;9.030;2022-11-15T15:25:43;2.55;;;2.10;;
3953;SDS011;1991;48.682;9.030;2022-11-15T15:28:10;2.55;;;1.70;;
3953;SDS011;1991;48.682;9.030;2022-11-15T15:30:36;3.03;;;2.15;;
3953;SDS011;1991;48.682;9.030;2022-11-15T15:33:02;2.58;;;1.77;;
3953;SDS011;1991;48.682;9.030;2022-11-15T15:35:29;4.82;;;1.63;;
3953;SDS011;1991;48.682;9.030;2022-11-15T15:37:57;2.40;;;2.20;;
3953;SDS011;1991;48.682;9.030;2022-11-15T15:40:23;5.47;;;1.92;;
3953;SDS011;1991;48.682;9.030;2022-11-15T15:42:50;3.50;;;2.10;;
3953;SDS011;1991;48.682;9.030;2022-11-15T15:45:16;5.15;;;2.30;;
3953;SDS011;1991;48.682;9.030;2022-11-15T15:47:43;2.78;;;2.08;;
3953;SDS011;1991;48.682;9.030;2022-11-15T15:50:26;3.88;;;2.08;;
3953;SDS011;1991;48.682;9.030;2022-11-15T15:52:58;6.05;;;1.90;;
3953;SDS011;1991;48.682;9.030;2022-11-15T15:55:25;4.40;;;2.03;;
3953;SDS011;1991;48.682;9.030;2022-11-15T15:57:51;4.05;;;2.05;;
3953;SDS011;1991;48.682;9.030;2022-11-15T16:00:17;4.45;;;2.00;;
3953;SDS011;1991;48.682;9.030;2022-11-15T16:02:43;5.10;;;2.47;;
3953;SDS011;1991;48.682;9.030;2022-11-15T16:05:09;10.07;;;5.70;;
3953;SDS011;1991;48.682;9.030;2022-11-15T16:07:36;19.52;;;12.15;;
3953;SDS011;1991;48.682;9.030;2022-11-15T16:10:04;5.32;;;4.00;;
3953;SDS011;1991;48.682;9.030;2022-11-15T16:12:41;3.50;;;2.50;;
3953;SDS011;1991;48.682;9.030;2022-11-15T16:15:07;3.05;;;2.15;;
3953;SDS011;1991;48.682;9.030;2022-11-15T16:17:33;3.92;;;2.35;;
3953;SDS011;1991;48.682;9.030;2022-11-15T16:20:03;4.88;;;2.25;;
3953;SDS011;1991;48.682;9.030;2022-11-15T16:22:29;2.35;;;2.05;;
3953;SDS011;1991;48.682;9.030;2022-11-15T16:24:55;3.42;;;2.10;;
3953;SDS011;1991;48.682;9.030;2022-11-15T16:27:21;5.38;;;2.15;;
3953;SDS011;1991;48.682;9.030;2022-11-15T16:29:47;3.47;;;2.40;;
3953;SDS011;1991;48.682;9.030;2022-11-15T16:32:14;5.43;;;2.50;;
3953;SDS011;1991;48.682;9.030;2022-11-15T16:34:40;5.28;;;2.38;;
3953;SDS011;1991;48.682;9.030;2022-11-15T16:37:08;3.20;;;2.22;;
3953;SDS011;1991;48.682;9.030;2022-11-15T16:39:46;3.50;;;2.05;;
3953;SDS011;1991;48.682;9.030;2022-11-15T16:42:12;4.60;;;2.33;;
3953;SDS011;1991;48.682;9.030;2022-11-15T16:44:37;3.75;;;2.10;;
3953;SDS011;1991;48.682;9.030;2022-11-15T16:47:03;4.82;;;3.13;;
3953;SDS011;1991;48.682;9.030;2022-11-15T16:49:29;5.40;;;2.78;;
3953;SDS011;1991;48.682;9.030;2022-11-15T16:51:54;4.18;;;2.28;;
3953;SDS011;1991;48.682;9.030;2022-11-15T16:54:20;4.97;;;2.92;;
3953;SDS011;1991;48.682;9.030;2022-11-15T16:56:45;4.50;;;2.70;;
3953;SDS011;1991;48.682;9.030;2022-11-15T16:59:15;3.80;;;2.30;;
3953;SDS011;1991;48.682;9.030;2022-11-15T17:01:42;6.63;;;2.72;;
3953;SDS011;1991;48.682;9.030;2022-11-15T17:04:17;3.67;;;2.40;;
3953;SDS011;1991;48.682;9.030;2022-11-15T17:06:44;4.85;;;3.10;;
3953;SDS011;1991;48.682;9.030;2022-11-15T17:09:12;4.30;;;2.45;;
3953;SDS011;1991;48.682;9.030;2022-11-15T17:11:40;5.13;;;2.33;;
3953;SDS011;1991;48.682;9.030;2022-11-15T17:14:06;3.50;;;2.88;;
3953;SDS011;1991;48.682;9.030;2022-11-15T17:16:32;7.20;;;2.70;;
3953;SDS011;1991;48.682;9.030;2022-11-15T17:18:59;3.63;;;2.47;;
3953;SDS011;1991;48.682;9.030;2022-11-15T17:21:24;4.00;;;3.10;;
3953;SDS011;1991;48.682;9.030;2022-11-15T17:23:52;4.68;;;2.40;;
3953;SDS011;1991;48.682;9.030;2022-11-15T17:26:18;4.82;;;2.60;;
3953;SDS011;1991;48.682;9.030;2022-11-15T17:28:44;3.70;;;2.60;;
3953;SDS011;1991;48.682;9.030;2022-11-15T17:31:10;5.32;;;2.65;;
3953;SDS011;1991;48.682;9.030;2022-11-15T17:33:38;9.43;;;2.65;;
3953;SDS011;1991;48.682;9.030;2022-11-15T17:36:07;6.90;;;2.75;;
3953;SDS011;1991;48.682;9.030;2022-11-15T17:38:35;4.67;;;2.77;;
3953;SDS011;1991;48.682;9.030;2022-11-15T17:41:02;5.20;;;2.55;;